Time;durP1;ratioP1;P1;durP2;ratioP2;P2;SDS_P1;SDS_P2;PMS_P1;PMS_P2;Temp;Humidity;BMP_temperature;BMP_pressure;BME280_temperature;BME280_humidity;BME280_pressure;Samples;Min_cycle;Max_cycle;Signal;HPM_P1;HPM_P2
2022/01/31 00:01:42;;;;;;;18.63;8.18;;;;;;;;;;5030951;28;20552;-57
2022/01/31 00:04:07;;;;;;;23.07;10.90;;;;;;;;;;5029742;28;20048;-57
2022/01/31 00:06:32;;;;;;;20.88;8.13;;;;;;;;;;5031431;28;20433;-57
2022/01/31 00:08:57;;;;;;;28.13;8.35;;;;;;;;;;5049002;28;20428;-57
2022/01/31 00:11:23;;;;;;;22.30;8.93;;;;;;;;;;5048832;28;20025;-57
2022/01/31 00:13:57;;;;;;;18.33;8.95;;;;;;;;;;5049716;28;20447;-58
2022/01/31 00:16:25;;;;;;;26.38;8.88;;;;;;;;;;5032106;28;20481;-58
2022/01/31 00:18:50;;;;;;;21.85;9.48;;;;;;;;;;5029232;28;20180;-57
2022/01/31 00:21:15;;;;;;;25.38;10.07;;;;;;;;;;5031115;28;20096;-58
2022/01/31 00:23:40;;;;;;;20.10;10.03;;;;;;;;;;5029432;28;20029;-58
2022/01/31 00:26:06;;;;;;;25.33;8.23;;;;;;;;;;5031064;28;20018;-58
2022/01/31 00:28:31;;;;;;;19.70;8.32;;;;;;;;;;5029662;28;20455;-58
2022/01/31 00:30:56;;;;;;;33.50;11.80;;;;;;;;;;5029624;28;20479;-58
2022/01/31 00:33:21;;;;;;;15.33;8.60;;;;;;;;;;5030835;28;20419;-58
2022/01/31 00:35:46;;;;;;;28.53;8.97;;;;;;;;;;5029327;28;20092;-57
2022/01/31 00:38:11;;;;;;;23.47;8.63;;;;;;;;;;5033688;28;20463;-57
2022/01/31 00:40:41;;;;;;;24.00;9.50;;;;;;;;;;5029184;28;20460;-58
2022/01/31 00:43:10;;;;;;;20.40;10.57;;;;;;;;;;5031235;28;20075;-57
2022/01/31 00:45:43;;;;;;;21.52;10.18;;;;;;;;;;5041500;28;20450;-57
2022/01/31 00:48:15;;;;;;;30.50;9.55;;;;;;;;;;5050500;28;20472;-57
2022/01/31 00:50:41;;;;;;;21.92;10.38;;;;;;;;;;5042324;28;20503;-57
2022/01/31 00:53:07;;;;;;;21.15;10.13;;;;;;;;;;5031026;28;20029;-57
2022/01/31 00:55:32;;;;;;;23.17;9.02;;;;;;;;;;5029135;28;20362;-57
2022/01/31 00:57:57;;;;;;;21.23;7.97;;;;;;;;;;5030614;28;20161;-57
2022/01/31 01:00:22;;;;;;;27.65;10.73;;;;;;;;;;5029260;28;20034;-57
2022/01/31 01:02:48;;;;;;;40.53;13.63;;;;;;;;;;5030234;28;20030;-57
2022/01/31 01:05:13;;;;;;;27.67;9.27;;;;;;;;;;5032862;28;20037;-57
2022/01/31 01:07:38;;;;;;;20.55;7.97;;;;;;;;;;5031101;28;20021;-57
2022/01/31 01:10:04;;;;;;;28.67;11.77;;;;;;;;;;5044334;28;20033;-57
2022/01/31 01:12:29;;;;;;;23.77;9.38;;;;;;;;;;5050436;28;20036;-57
2022/01/31 01:14:55;;;;;;;21.48;10.07;;;;;;;;;;5042529;28;20033;-57
2022/01/31 01:17:20;;;;;;;19.85;9.75;;;;;;;;;;5030503;28;20025;-57
2022/01/31 01:19:45;;;;;;;19.87;9.60;;;;;;;;;;5029104;28;20496;-57
2022/01/31 01:22:10;;;;;;;31.15;10.25;;;;;;;;;;5030486;28;21009;-57
2022/01/31 01:24:36;;;;;;;17.80;8.55;;;;;;;;;;5032833;28;20535;-57
2022/01/31 01:27:01;;;;;;;19.50;8.10;;;;;;;;;;5031768;28;20107;-57
2022/01/31 01:29:26;;;;;;;23.17;8.38;;;;;;;;;;5029257;28;20048;-57
2022/01/31 01:31:52;;;;;;;25.88;7.57;;;;;;;;;;5029945;28;20021;-57
2022/01/31 01:34:17;;;;;;;44.95;14.77;;;;;;;;;;5029399;28;20045;-58
2022/01/31 01:36:45;;;;;;;26.13;10.93;;;;;;;;;;5030535;28;20028;-57
2022/01/31 01:39:10;;;;;;;25.02;10.23;;;;;;;;;;5029138;28;20030;-56
2022/01/31 01:41:35;;;;;;;24.08;11.07;;;;;;;;;;5050380;28;20017;-56
2022/01/31 01:44:00;;;;;;;29.60;10.90;;;;;;;;;;5048541;28;20041;-56
2022/01/31 01:46:25;;;;;;;35.22;12.15;;;;;;;;;;5032170;28;20384;-56
2022/01/31 01:48:51;;;;;;;26.67;11.20;;;;;;;;;;5028817;28;20545;-56
2022/01/31 01:51:16;;;;;;;29.10;12.48;;;;;;;;;;5034061;28;20025;-56
2022/01/31 01:53:41;;;;;;;23.85;11.23;;;;;;;;;;5044686;28;20045;-57
2022/01/31 01:56:07;;;;;;;35.30;14.13;;;;;;;;;;5033768;28;20033;-56
2022/01/31 01:58:38;;;;;;;33.75;14.63;;;;;;;;;;5041518;28;20837;-56
2022/01/31 02:01:04;;;;;;;28.33;13.07;;;;;;;;;;5053394;28;20025;-56
2022/01/31 02:03:30;;;;;;;24.40;11.05;;;;;;;;;;5052216;28;20090;-56
2022/01/31 02:05:56;;;;;;;30.70;11.95;;;;;;;;;;5053221;28;20407;-57
2022/01/31 02:08:21;;;;;;;18.08;12.32;;;;;;;;;;5045839;28;20074;-57
2022/01/31 02:10:47;;;;;;;20.92;11.25;;;;;;;;;;5053384;28;20031;-57
2022/01/31 02:13:15;;;;;;;28.88;12.90;;;;;;;;;;5053662;28;20021;-57
2022/01/31 02:15:40;;;;;;;31.67;12.68;;;;;;;;;;5049820;28;20033;-57
2022/01/31 02:18:06;;;;;;;29.08;12.27;;;;;;;;;;5053460;28;20094;-57
2022/01/31 02:20:36;;;;;;;24.33;13.50;;;;;;;;;;5051629;28;20075;-57
2022/01/31 02:23:02;;;;;;;20.75;12.73;;;;;;;;;;5039158;28;20959;-57
2022/01/31 02:25:28;;;;;;;22.75;12.85;;;;;;;;;;5031752;28;20127;-57
2022/01/31 02:27:53;;;;;;;33.65;14.23;;;;;;;;;;5033099;28;20160;-58
2022/01/31 02:30:18;;;;;;;32.70;17.67;;;;;;;;;;5031410;28;20042;-58
2022/01/31 02:32:43;;;;;;;24.25;12.13;;;;;;;;;;5046183;28;20029;-58
2022/01/31 02:35:11;;;;;;;15.82;12.13;;;;;;;;;;5042043;28;20033;-58
2022/01/31 02:37:36;;;;;;;26.73;12.35;;;;;;;;;;5033311;28;20032;-59
2022/01/31 02:40:02;;;;;;;23.95;12.95;;;;;;;;;;5030962;28;20037;-58
2022/01/31 02:42:28;;;;;;;23.13;12.02;;;;;;;;;;5032886;28;20476;-58
2022/01/31 02:44:53;;;;;;;23.90;13.13;;;;;;;;;;5032505;28;20040;-58
2022/01/31 02:47:25;;;;;;;19.50;11.43;;;;;;;;;;5032696;28;20017;-58
2022/01/31 02:52:19;;;;;;;17.35;10.50;;;;;;;;;;5052726;28;20115;-58
2022/01/31 02:54:44;;;;;;;17.92;12.25;;;;;;;;;;5050486;28;20116;-59
2022/01/31 02:57:09;;;;;;;20.77;14.43;;;;;;;;;;5052972;28;20460;-58
2022/01/31 02:59:34;;;;;;;23.60;12.48;;;;;;;;;;5051338;28;20052;-58
2022/01/31 03:02:00;;;;;;;18.77;11.57;;;;;;;;;;5050988;28;20031;-58
2022/01/31 03:04:25;;;;;;;15.50;13.83;;;;;;;;;;5047752;28;20526;-58
2022/01/31 03:06:50;;;;;;;17.80;13.47;;;;;;;;;;5032543;28;20033;-58
2022/01/31 03:09:16;;;;;;;23.00;12.93;;;;;;;;;;5030868;28;21030;-57
2022/01/31 03:11:41;;;;;;;18.38;12.10;;;;;;;;;;5032154;28;20026;-58
2022/01/31 03:14:06;;;;;;;15.82;11.35;;;;;;;;;;5030947;28;20056;-58
2022/01/31 03:16:33;;;;;;;14.80;12.50;;;;;;;;;;5039769;28;20024;-58
2022/01/31 03:18:58;;;;;;;15.05;11.43;;;;;;;;;;5050173;28;20567;-58
2022/01/31 03:21:24;;;;;;;23.10;13.45;;;;;;;;;;5048312;28;20104;-58
2022/01/31 03:23:50;;;;;;;22.05;13.85;;;;;;;;;;5049917;28;20492;-58
2022/01/31 03:26:15;;;;;;;17.35;12.68;;;;;;;;;;5052391;28;20021;-57
2022/01/31 03:28:40;;;;;;;26.48;13.75;;;;;;;;;;5039094;28;20091;-57
2022/01/31 03:31:06;;;;;;;16.88;12.65;;;;;;;;;;5041478;28;20452;-56
2022/01/31 03:33:33;;;;;;;20.73;11.52;;;;;;;;;;5050504;28;20025;-57
2022/01/31 03:35:58;;;;;;;18.30;13.82;;;;;;;;;;5051276;28;20050;-57
2022/01/31 03:38:23;;;;;;;20.98;13.90;;;;;;;;;;5051674;28;20043;-58
2022/01/31 03:40:48;;;;;;;32.67;16.40;;;;;;;;;;5049816;28;20161;-58
2022/01/31 03:43:14;;;;;;;23.08;13.75;;;;;;;;;;5051978;28;20033;-58
2022/01/31 03:45:39;;;;;;;21.98;15.63;;;;;;;;;;5049462;28;20569;-58
2022/01/31 03:48:06;;;;;;;23.08;14.95;;;;;;;;;;5052060;28;20530;-58
2022/01/31 03:50:31;;;;;;;17.13;12.45;;;;;;;;;;5043535;28;20037;-58
2022/01/31 03:52:56;;;;;;;21.20;15.20;;;;;;;;;;5031025;28;20421;-58
2022/01/31 03:55:21;;;;;;;21.77;15.15;;;;;;;;;;5030218;28;20106;-58
2022/01/31 03:57:47;;;;;;;21.97;15.47;;;;;;;;;;5050852;28;20107;-58
2022/01/31 04:00:13;;;;;;;22.50;13.13;;;;;;;;;;5048000;28;20463;-58
2022/01/31 04:02:39;;;;;;;18.88;14.50;;;;;;;;;;5051287;28;20480;-58
2022/01/31 04:05:05;;;;;;;22.95;16.35;;;;;;;;;;5038412;28;20091;-58
2022/01/31 04:07:30;;;;;;;26.33;15.82;;;;;;;;;;5031263;28;20052;-58
2022/01/31 04:09:55;;;;;;;30.98;17.52;;;;;;;;;;5030006;28;20484;-58
2022/01/31 04:12:21;;;;;;;25.40;16.77;;;;;;;;;;5030661;28;20100;-58
2022/01/31 04:14:46;;;;;;;23.73;16.92;;;;;;;;;;5029344;28;20456;-58
2022/01/31 04:17:11;;;;;;;20.75;16.30;;;;;;;;;;5031391;28;20022;-58
2022/01/31 04:19:38;;;;;;;19.37;14.67;;;;;;;;;;5044274;28;20088;-57
2022/01/31 04:22:03;;;;;;;20.05;16.67;;;;;;;;;;5050285;28;20468;-57
2022/01/31 04:24:33;;;;;;;33.22;15.75;;;;;;;;;;5049679;28;20045;-57
2022/01/31 04:27:05;;;;;;;19.00;12.18;;;;;;;;;;5050663;28;20025;-57
2022/01/31 04:29:31;;;;;;;21.67;12.00;;;;;;;;;;5049324;28;20045;-57
2022/01/31 04:31:57;;;;;;;19.23;11.13;;;;;;;;;;5049064;28;20020;-57
2022/01/31 04:34:22;;;;;;;24.50;11.20;;;;;;;;;;5034943;28;20131;-57
2022/01/31 04:36:47;;;;;;;22.27;10.82;;;;;;;;;;5050276;28;20799;-57
2022/01/31 04:39:17;;;;;;;17.43;9.33;;;;;;;;;;5049765;28;20037;-57
2022/01/31 04:41:42;;;;;;;20.50;10.73;;;;;;;;;;5050753;28;20075;-57
2022/01/31 04:44:08;;;;;;;22.00;10.90;;;;;;;;;;5049074;28;20049;-57
2022/01/31 04:46:34;;;;;;;17.70;10.30;;;;;;;;;;5044739;28;20484;-57
2022/01/31 04:48:59;;;;;;;25.23;11.02;;;;;;;;;;5031980;28;20061;-57
2022/01/31 04:51:24;;;;;;;19.08;10.95;;;;;;;;;;5039038;28;20061;-57
2022/01/31 04:53:49;;;;;;;13.57;10.83;;;;;;;;;;5036263;28;20538;-57
2022/01/31 04:56:14;;;;;;;18.95;8.77;;;;;;;;;;5030943;28;20033;-57
2022/01/31 04:58:40;;;;;;;15.30;8.27;;;;;;;;;;5034157;28;20029;-57
2022/01/31 05:01:05;;;;;;;20.30;6.90;;;;;;;;;;5040850;28;20444;-57
2022/01/31 05:03:31;;;;;;;15.38;5.18;;;;;;;;;;5047828;28;20082;-58
2022/01/31 05:05:56;;;;;;;12.52;4.40;;;;;;;;;;5032663;28;20020;-58
2022/01/31 05:08:25;;;;;;;23.40;5.50;;;;;;;;;;5030872;28;20164;-58
2022/01/31 05:10:51;;;;;;;14.65;5.55;;;;;;;;;;5029216;28;20036;-57
2022/01/31 05:13:16;;;;;;;14.05;5.32;;;;;;;;;;5037768;28;20376;-54
2022/01/31 05:15:43;;;;;;;51.85;9.48;;;;;;;;;;5049042;28;20435;-54
2022/01/31 05:18:08;;;;;;;18.50;4.88;;;;;;;;;;5049178;28;20442;-54
2022/01/31 05:20:33;;;;;;;15.38;5.30;;;;;;;;;;5045302;28;20029;-54
2022/01/31 05:22:58;;;;;;;20.10;7.77;;;;;;;;;;5031784;28;20014;-54
2022/01/31 05:25:24;;;;;;;18.13;7.03;;;;;;;;;;5042771;28;20463;-54
2022/01/31 05:27:49;;;;;;;15.27;5.68;;;;;;;;;;5042472;28;20022;-54
2022/01/31 05:30:16;;;;;;;22.30;5.72;;;;;;;;;;5045921;28;20048;-54
2022/01/31 05:32:41;;;;;;;22.35;6.05;;;;;;;;;;5053834;28;20029;-55
2022/01/31 05:35:06;;;;;;;23.27;6.73;;;;;;;;;;5050103;28;20037;-53
2022/01/31 05:37:31;;;;;;;23.90;5.23;;;;;;;;;;5041417;28;20021;-54
2022/01/31 05:39:57;;;;;;;11.63;4.25;;;;;;;;;;5035522;28;20468;-55
2022/01/31 05:42:22;;;;;;;17.48;5.60;;;;;;;;;;5048396;28;20029;-54
2022/01/31 05:44:47;;;;;;;15.73;5.15;;;;;;;;;;5050578;28;20597;-54
2022/01/31 05:47:13;;;;;;;25.47;7.67;;;;;;;;;;5052949;28;20029;-54
2022/01/31 05:49:38;;;;;;;16.95;7.38;;;;;;;;;;5050530;28;20455;-54
2022/01/31 05:52:05;;;;;;;14.70;5.63;;;;;;;;;;5050716;28;20025;-55
2022/01/31 05:54:31;;;;;;;16.45;7.25;;;;;;;;;;5052470;28;20886;-54
2022/01/31 05:56:57;;;;;;;17.23;7.05;;;;;;;;;;5053513;28;20021;-54
2022/01/31 05:59:22;;;;;;;20.10;7.82;;;;;;;;;;5052058;28;20098;-54
2022/01/31 06:01:47;;;;;;;24.15;7.65;;;;;;;;;;5046745;28;20025;-54
2022/01/31 06:04:12;;;;;;;26.02;6.40;;;;;;;;;;5041582;28;20091;-54
2022/01/31 06:06:38;;;;;;;18.63;6.80;;;;;;;;;;5043290;28;20021;-54
2022/01/31 06:09:03;;;;;;;22.15;6.93;;;;;;;;;;5040344;28;20034;-54
2022/01/31 06:11:31;;;;;;;16.88;10.60;;;;;;;;;;5043641;28;20025;-54
2022/01/31 06:13:56;;;;;;;21.30;8.40;;;;;;;;;;5041578;28;20064;-54
2022/01/31 06:16:21;;;;;;;20.42;6.97;;;;;;;;;;5042150;28;20048;-54
2022/01/31 06:18:46;;;;;;;31.35;7.55;;;;;;;;;;5042161;28;20091;-54
2022/01/31 06:21:12;;;;;;;16.30;6.00;;;;;;;;;;5050878;28;20059;-54
2022/01/31 06:23:37;;;;;;;17.35;4.40;;;;;;;;;;5051857;28;20384;-55
2022/01/31 06:26:03;;;;;;;21.02;7.68;;;;;;;;;;5053097;28;20372;-53
2022/01/31 06:28:28;;;;;;;15.63;7.23;;;;;;;;;;5050208;28;20091;-54
2022/01/31 06:30:53;;;;;;;10.25;4.10;;;;;;;;;;5051932;28;20013;-54
2022/01/31 06:33:18;;;;;;;14.50;5.57;;;;;;;;;;5053146;28;20480;-54
2022/01/31 06:35:44;;;;;;;18.00;4.67;;;;;;;;;;5050401;28;20051;-54
2022/01/31 06:38:09;;;;;;;12.50;5.20;;;;;;;;;;5053310;28;20439;-54
2022/01/31 06:40:34;;;;;;;12.85;4.30;;;;;;;;;;5051512;28;20033;-55
2022/01/31 06:42:59;;;;;;;18.77;4.75;;;;;;;;;;5052234;28;20025;-54
2022/01/31 06:45:24;;;;;;;20.35;3.95;;;;;;;;;;5051363;28;20037;-55
2022/01/31 06:47:50;;;;;;;16.27;5.03;;;;;;;;;;5052937;28;20021;-54
2022/01/31 06:50:15;;;;;;;10.93;3.63;;;;;;;;;;5050903;28;20548;-54
2022/01/31 06:52:41;;;;;;;8.43;5.00;;;;;;;;;;5052622;28;20021;-54
2022/01/31 06:55:07;;;;;;;17.00;6.28;;;;;;;;;;5051322;28;20408;-53
2022/01/31 06:57:36;;;;;;;14.10;5.95;;;;;;;;;;5052595;28;20021;-54
2022/01/31 07:00:05;;;;;;;9.48;5.10;;;;;;;;;;5051014;28;20537;-54
2022/01/31 07:02:31;;;;;;;14.73;4.43;;;;;;;;;;5052586;28;20028;-55
2022/01/31 07:04:56;;;;;;;12.70;3.67;;;;;;;;;;5050412;28;20109;-54
2022/01/31 07:07:22;;;;;;;11.65;4.85;;;;;;;;;;5052541;28;20423;-54
2022/01/31 07:09:47;;;;;;;16.17;3.47;;;;;;;;;;5050799;28;20045;-54
2022/01/31 07:12:13;;;;;;;20.27;4.97;;;;;;;;;;5052066;28;20017;-54
2022/01/31 07:14:38;;;;;;;14.85;4.60;;;;;;;;;;5051049;28;20052;-54
2022/01/31 07:17:05;;;;;;;18.50;6.68;;;;;;;;;;5052362;28;20380;-54
2022/01/31 07:19:33;;;;;;;16.45;4.28;;;;;;;;;;5050239;28;20090;-53
2022/01/31 07:21:59;;;;;;;13.85;6.38;;;;;;;;;;5052244;28;20017;-54
2022/01/31 07:24:31;;;;;;;29.83;6.82;;;;;;;;;;5050821;28;20060;-54
2022/01/31 07:26:57;;;;;;;15.65;5.00;;;;;;;;;;5051530;28;20365;-54
2022/01/31 07:29:22;;;;;;;30.00;6.93;;;;;;;;;;5050582;28;20032;-54
2022/01/31 07:31:48;;;;;;;19.53;5.60;;;;;;;;;;5051811;28;20021;-54
2022/01/31 07:34:15;;;;;;;10.00;4.05;;;;;;;;;;5050320;28;20455;-53
2022/01/31 07:36:40;;;;;;;18.45;3.75;;;;;;;;;;5051906;28;20013;-55
2022/01/31 07:39:05;;;;;;;9.73;3.93;;;;;;;;;;5050427;28;20400;-54
2022/01/31 07:41:30;;;;;;;18.23;6.87;;;;;;;;;;5051553;28;20424;-54
2022/01/31 07:43:55;;;;;;;18.60;5.35;;;;;;;;;;5049957;28;20463;-54
2022/01/31 07:46:21;;;;;;;11.70;5.38;;;;;;;;;;5051312;28;20021;-53
2022/01/31 07:48:48;;;;;;;11.03;4.40;;;;;;;;;;5049329;28;20167;-54
2022/01/31 07:51:13;;;;;;;25.35;6.13;;;;;;;;;;5052012;28;20464;-54
2022/01/31 07:53:39;;;;;;;11.93;4.23;;;;;;;;;;5050295;28;20013;-54
2022/01/31 07:56:07;;;;;;;16.15;4.30;;;;;;;;;;5051027;28;20414;-53
2022/01/31 07:58:32;;;;;;;16.08;4.63;;;;;;;;;;5050200;28;20017;-54
2022/01/31 08:00:58;;;;;;;10.50;4.88;;;;;;;;;;5051328;28;20024;-53
2022/01/31 08:03:23;;;;;;;13.75;4.13;;;;;;;;;;5049869;28;20116;-53
2022/01/31 08:05:48;;;;;;;12.70;4.13;;;;;;;;;;5051203;28;20017;-54
2022/01/31 08:08:13;;;;;;;4.33;3.47;;;;;;;;;;5051355;28;20020;-54
2022/01/31 08:10:39;;;;;;;8.55;2.50;;;;;;;;;;5049939;28;20048;-54
2022/01/31 08:13:06;;;;;;;14.93;4.32;;;;;;;;;;5050988;28;20372;-54
2022/01/31 08:15:34;;;;;;;11.50;3.40;;;;;;;;;;5049709;28;20506;-54
2022/01/31 08:17:59;;;;;;;8.90;3.60;;;;;;;;;;5050989;28;20069;-54
2022/01/31 08:20:24;;;;;;;8.63;2.90;;;;;;;;;;5049584;28;20067;-55
2022/01/31 08:22:49;;;;;;;18.48;5.20;;;;;;;;;;5051105;28;20437;-54
2022/01/31 08:25:15;;;;;;;15.07;4.07;;;;;;;;;;5049745;28;20474;-54
2022/01/31 08:27:41;;;;;;;6.65;3.38;;;;;;;;;;5050642;28;20439;-53
2022/01/31 08:30:11;;;;;;;9.68;4.25;;;;;;;;;;5049580;28;20025;-53
2022/01/31 08:32:44;;;;;;;8.27;3.95;;;;;;;;;;5051428;28;20096;-53
2022/01/31 08:37:53;;;;;;;14.05;3.92;;;;;;;;;;5050690;28;20704;-54
2022/01/31 08:40:18;;;;;;;9.33;5.43;;;;;;;;;;5048785;28;20036;-54
2022/01/31 08:42:43;;;;;;;18.97;5.50;;;;;;;;;;5050121;28;20423;-54
2022/01/31 08:45:09;;;;;;;20.92;6.57;;;;;;;;;;5048830;28;20463;-54
2022/01/31 08:47:34;;;;;;;25.45;6.35;;;;;;;;;;5051004;28;20027;-54
2022/01/31 08:49:59;;;;;;;13.15;5.93;;;;;;;;;;5048882;28;20116;-54
2022/01/31 08:52:24;;;;;;;19.13;5.90;;;;;;;;;;5051113;28;20074;-54
2022/01/31 08:54:49;;;;;;;26.80;7.47;;;;;;;;;;5049128;28;20084;-54
2022/01/31 08:57:15;;;;;;;19.70;5.80;;;;;;;;;;5050365;28;20021;-53
2022/01/31 08:59:44;;;;;;;20.08;5.53;;;;;;;;;;5038867;28;20041;-54
2022/01/31 09:02:14;;;;;;;22.92;6.10;;;;;;;;;;5035150;28;20029;-54
2022/01/31 09:04:47;;;;;;;17.67;6.60;;;;;;;;;;5045270;28;20041;-53
2022/01/31 09:07:13;;;;;;;28.38;7.82;;;;;;;;;;5054162;28;20096;-54
2022/01/31 09:09:38;;;;;;;13.07;5.00;;;;;;;;;;5052304;28;20111;-54
2022/01/31 09:12:06;;;;;;;8.02;3.75;;;;;;;;;;5053278;28;20053;-54
2022/01/31 09:14:31;;;;;;;16.98;5.10;;;;;;;;;;5053518;28;20033;-54
2022/01/31 09:16:57;;;;;;;9.25;4.38;;;;;;;;;;5044757;28;20018;-54
2022/01/31 09:19:22;;;;;;;12.80;3.90;;;;;;;;;;5032545;28;20049;-54
2022/01/31 09:21:47;;;;;;;13.85;4.47;;;;;;;;;;5034153;28;20427;-55
2022/01/31 09:24:12;;;;;;;18.07;5.10;;;;;;;;;;5033239;28;20045;-54
2022/01/31 09:26:37;;;;;;;22.45;6.65;;;;;;;;;;5033826;28;20422;-55
2022/01/31 09:29:03;;;;;;;6.93;3.53;;;;;;;;;;5032656;28;20025;-54
2022/01/31 09:31:28;;;;;;;36.08;6.60;;;;;;;;;;5034444;28;20071;-53
2022/01/31 09:33:53;;;;;;;21.45;6.10;;;;;;;;;;5032365;28;20488;-53
2022/01/31 09:36:18;;;;;;;28.30;6.78;;;;;;;;;;5034232;28;20178;-54
2022/01/31 09:38:43;;;;;;;16.87;4.67;;;;;;;;;;5032682;28;20034;-54
2022/01/31 09:41:11;;;;;;;22.17;3.93;;;;;;;;;;5033601;28;20025;-54
2022/01/31 09:48:44;;;;;;;13.93;5.30;;;;;;;;;;5032307;28;20049;-54
2022/01/31 09:51:16;;;;;;;13.75;3.67;;;;;;;;;;5034161;28;20033;-54
2022/01/31 09:53:42;;;;;;;27.20;5.53;;;;;;;;;;5049258;28;20060;-53
2022/01/31 09:56:10;;;;;;;17.63;6.30;;;;;;;;;;5053748;28;20030;-53
2022/01/31 09:58:35;;;;;;;12.02;4.35;;;;;;;;;;5052318;28;20049;-54
2022/01/31 10:01:11;;;;;;;15.65;5.10;;;;;;;;;;5047922;28;20049;-54
2022/01/31 10:03:43;;;;;;;21.90;5.18;;;;;;;;;;5050701;28;20108;-54
2022/01/31 10:06:17;;;;;;;16.40;6.60;;;;;;;;;;5051998;28;20032;-53
2022/01/31 10:08:42;;;;;;;16.50;5.78;;;;;;;;;;5032050;28;20032;-54
2022/01/31 10:11:20;;;;;;;26.13;5.28;;;;;;;;;;5032056;28;20030;-54
2022/01/31 10:16:32;;;;;;;14.98;3.60;;;;;;;;;;5033577;28;20037;-54
2022/01/31 10:19:02;;;;;;;11.43;4.13;;;;;;;;;;5031437;28;20037;-55
2022/01/31 10:21:27;;;;;;;9.55;4.93;;;;;;;;;;5033280;28;20545;-53
2022/01/31 10:23:53;;;;;;;14.00;3.40;;;;;;;;;;5031436;28;20120;-54
2022/01/31 10:26:28;;;;;;;16.20;3.55;;;;;;;;;;5033166;28;20025;-54
2022/01/31 10:29:07;;;;;;;10.77;3.17;;;;;;;;;;5031809;28;20030;-54
2022/01/31 10:31:32;;;;;;;9.73;3.90;;;;;;;;;;5032880;28;20461;-53
2022/01/31 10:34:13;;;;;;;7.93;3.20;;;;;;;;;;5031616;28;20094;-53
2022/01/31 10:36:38;;;;;;;6.93;2.78;;;;;;;;;;5033408;28;20100;-54
2022/01/31 10:39:13;;;;;;;20.90;4.87;;;;;;;;;;5031397;28;20129;-54
2022/01/31 10:52:19;;;;;;;13.10;3.08;;;;;;;;;;5033040;28;20484;-54
2022/01/31 10:54:44;;;;;;;4.75;2.30;;;;;;;;;;5030909;28;20033;-53
2022/01/31 10:57:17;;;;;;;6.68;3.80;;;;;;;;;;5033085;28;20021;-52
2022/01/31 10:59:44;;;;;;;4.85;2.50;;;;;;;;;;5031146;28;20127;-54
2022/01/31 11:02:22;;;;;;;4.68;1.95;;;;;;;;;;5032542;28;20022;-53
2022/01/31 11:04:48;;;;;;;4.90;3.25;;;;;;;;;;5034153;28;20534;-54
2022/01/31 11:07:15;;;;;;;7.00;2.92;;;;;;;;;;5045007;28;20095;-54
2022/01/31 11:09:41;;;;;;;5.57;1.98;;;;;;;;;;5050146;28;20080;-53
2022/01/31 11:12:07;;;;;;;6.63;3.40;;;;;;;;;;5043321;28;20017;-53
2022/01/31 11:14:33;;;;;;;4.22;2.42;;;;;;;;;;5032267;28;20045;-54
2022/01/31 11:17:05;;;;;;;1.80;1.70;;;;;;;;;;5031728;28;20034;-54
2022/01/31 11:19:32;;;;;;;5.15;2.75;;;;;;;;;;5030799;28;20063;-53
2022/01/31 11:22:01;;;;;;;4.55;2.08;;;;;;;;;;5031851;28;20029;-54
2022/01/31 11:24:31;;;;;;;7.20;2.45;;;;;;;;;;5031031;28;20401;-54
2022/01/31 11:26:58;;;;;;;7.85;3.03;;;;;;;;;;5033813;28;20147;-53
2022/01/31 11:29:23;;;;;;;5.20;1.70;;;;;;;;;;5050901;28;20048;-54
2022/01/31 11:31:49;;;;;;;4.18;2.40;;;;;;;;;;5051662;28;20045;-54
2022/01/31 11:34:15;;;;;;;4.13;1.73;;;;;;;;;;5050614;28;20510;-54
2022/01/31 11:36:41;;;;;;;3.88;1.92;;;;;;;;;;5051242;28;20426;-54
2022/01/31 11:39:08;;;;;;;4.13;2.17;;;;;;;;;;5030930;28;20039;-54
2022/01/31 11:41:34;;;;;;;8.63;2.22;;;;;;;;;;5031953;28;20028;-54
2022/01/31 11:44:04;;;;;;;9.60;3.33;;;;;;;;;;5030066;28;20464;-54
2022/01/31 11:46:30;;;;;;;2.35;2.10;;;;;;;;;;5031553;28;20079;-53
2022/01/31 11:48:55;;;;;;;10.45;1.95;;;;;;;;;;5030235;28;20029;-54
2022/01/31 11:51:21;;;;;;;2.03;1.83;;;;;;;;;;5031918;28;20025;-54
2022/01/31 11:53:46;;;;;;;7.10;2.58;;;;;;;;;;5029944;28;20029;-54
2022/01/31 11:56:22;;;;;;;8.83;2.83;;;;;;;;;;5031753;28;20021;-54
2022/01/31 11:58:51;;;;;;;7.10;2.10;;;;;;;;;;5030140;28;20545;-54
2022/01/31 12:01:20;;;;;;;4.88;1.77;;;;;;;;;;5031391;28;20021;-54
2022/01/31 12:03:58;;;;;;;5.00;1.90;;;;;;;;;;5029888;28;20033;-54
2022/01/31 12:06:24;;;;;;;4.25;2.20;;;;;;;;;;5031448;28;20017;-55
2022/01/31 12:08:51;;;;;;;3.00;1.50;;;;;;;;;;5029557;28;20037;-54
2022/01/31 12:11:23;;;;;;;2.83;1.40;;;;;;;;;;5031217;28;20055;-53
2022/01/31 12:13:52;;;;;;;1.95;1.60;;;;;;;;;;5030039;28;20034;-54
2022/01/31 12:16:31;;;;;;;2.25;1.88;;;;;;;;;;5031331;28;20060;-55
2022/01/31 12:19:04;;;;;;;;;;;;;;;;;;5030103;28;20041;-54
2022/01/31 12:22:02;;;;;;;2.38;1.58;;;;;;;;;;5031670;28;20330;-54
2022/01/31 12:24:27;;;;;;;5.68;2.08;;;;;;;;;;5029405;28;20053;-54
2022/01/31 12:26:57;;;;;;;8.88;2.97;;;;;;;;;;5030757;28;20473;-54
2022/01/31 12:29:29;;;;;;;7.63;3.47;;;;;;;;;;5029880;28;20041;-55
2022/01/31 12:32:15;;;;;;;14.15;3.40;;;;;;;;;;5030981;28;20045;-54
2022/01/31 12:34:47;;;;;;;18.75;7.18;;;;;;;;;;5028862;28;20094;-54
2022/01/31 12:37:18;;;;;;;16.15;4.10;;;;;;;;;;5031359;28;20448;-55
2022/01/31 12:39:48;;;;;;;22.40;6.28;;;;;;;;;;5039125;28;20102;-55
2022/01/31 12:45:26;;;;;;;12.65;4.53;;;;;;;;;;5042008;28;20506;-54
2022/01/31 12:48:09;;;;;;;21.70;5.15;;;;;;;;;;5050519;28;20027;-54
2022/01/31 12:50:36;;;;;;;19.73;6.03;;;;;;;;;;5049346;28;20056;-54
2022/01/31 12:53:05;;;;;;;9.90;4.32;;;;;;;;;;5050532;28;20021;-54
2022/01/31 12:55:31;;;;;;;6.18;4.05;;;;;;;;;;5049434;28;20459;-55
2022/01/31 12:57:57;;;;;;;12.35;3.53;;;;;;;;;;5050920;28;20053;-55
2022/01/31 13:00:39;;;;;;;14.55;4.03;;;;;;;;;;5049033;28;20043;-54
2022/01/31 13:03:04;;;;;;;5.82;3.00;;;;;;;;;;5050604;28;20027;-55
2022/01/31 13:05:30;;;;;;;37.45;6.18;;;;;;;;;;5049278;28;20033;-54
2022/01/31 13:07:55;;;;;;;14.40;5.60;;;;;;;;;;5050312;28;20505;-55
2022/01/31 13:10:20;;;;;;;16.73;4.43;;;;;;;;;;5049211;28;20029;-55
2022/01/31 13:12:56;;;;;;;21.40;5.28;;;;;;;;;;5050466;28;20025;-54
2022/01/31 13:15:22;;;;;;;31.27;7.20;;;;;;;;;;5048674;28;20496;-54
2022/01/31 13:17:47;;;;;;;23.50;7.05;;;;;;;;;;5050424;28;20052;-55
2022/01/31 13:20:12;;;;;;;23.48;7.63;;;;;;;;;;5049171;28;20078;-55
2022/01/31 13:22:40;;;;;;;26.53;7.03;;;;;;;;;;5050300;28;20057;-54
2022/01/31 13:25:06;;;;;;;38.30;8.02;;;;;;;;;;5048971;28;20163;-55
2022/01/31 13:27:35;;;;;;;29.35;7.68;;;;;;;;;;5050446;28;20017;-55
2022/01/31 13:30:01;;;;;;;28.33;7.05;;;;;;;;;;5048599;28;20486;-55
2022/01/31 13:32:36;;;;;;;29.13;6.85;;;;;;;;;;5050469;28;20063;-55
2022/01/31 13:35:03;;;;;;;19.55;5.78;;;;;;;;;;5048819;28;20021;-55
2022/01/31 13:37:28;;;;;;;27.45;6.18;;;;;;;;;;5050031;28;20040;-55
2022/01/31 13:39:54;;;;;;;31.87;8.57;;;;;;;;;;5048942;28;20424;-54
2022/01/31 13:42:25;;;;;;;20.65;4.65;;;;;;;;;;5045317;28;20088;-55
2022/01/31 13:44:52;;;;;;;32.22;5.43;;;;;;;;;;5047675;28;20617;-55
2022/01/31 13:47:28;;;;;;;30.25;8.93;;;;;;;;;;5047030;28;20788;-55
2022/01/31 13:49:53;;;;;;;42.17;9.32;;;;;;;;;;5031288;28;20392;-54
2022/01/31 13:52:18;;;;;;;36.80;8.67;;;;;;;;;;5033553;28;20109;-55
2022/01/31 13:54:44;;;;;;;32.05;7.35;;;;;;;;;;5032371;28;20454;-55
2022/01/31 13:57:11;;;;;;;15.38;6.68;;;;;;;;;;5033637;28;20408;-54
2022/01/31 13:59:37;;;;;;;39.30;8.98;;;;;;;;;;5031749;28;20033;-55
2022/01/31 14:02:09;;;;;;;29.10;9.20;;;;;;;;;;5031982;28;20021;-54
2022/01/31 14:04:36;;;;;;;25.20;5.00;;;;;;;;;;5029986;28;20541;-54
2022/01/31 14:07:01;;;;;;;35.85;9.23;;;;;;;;;;5033407;28;20021;-53
2022/01/31 14:09:30;;;;;;;30.13;5.33;;;;;;;;;;5032328;28;20085;-55
2022/01/31 14:11:55;;;;;;;33.65;8.68;;;;;;;;;;5032881;28;20381;-55
2022/01/31 14:14:20;;;;;;;30.13;6.27;;;;;;;;;;5031798;28;20029;-55
2022/01/31 14:16:45;;;;;;;19.50;3.90;;;;;;;;;;5033432;28;20095;-55
2022/01/31 14:19:12;;;;;;;11.93;4.63;;;;;;;;;;5031699;28;20460;-54
2022/01/31 14:21:38;;;;;;;8.68;3.65;;;;;;;;;;5034729;28;20021;-54
2022/01/31 14:24:04;;;;;;;20.08;5.68;;;;;;;;;;5042334;28;20025;-54
2022/01/31 14:26:34;;;;;;;12.40;5.05;;;;;;;;;;5051541;28;20033;-54
2022/01/31 14:29:00;;;;;;;20.23;4.97;;;;;;;;;;5050753;28;20064;-54
2022/01/31 14:31:27;;;;;;;13.45;3.38;;;;;;;;;;5043303;28;20033;-55
2022/01/31 14:33:52;;;;;;;23.67;6.00;;;;;;;;;;5043425;28;20029;-55
2022/01/31 14:36:18;;;;;;;14.27;6.38;;;;;;;;;;5053011;28;20021;-54
2022/01/31 14:39:07;;;;;;;7.65;4.60;;;;;;;;;;5051361;28;20025;-54
2022/01/31 14:41:56;;;;;;;6.20;3.67;;;;;;;;;;5053324;28;20372;-55
2022/01/31 14:47:24;;;;;;;18.58;4.57;;;;;;;;;;5053122;28;20122;-54
2022/01/31 14:50:06;;;;;;;13.52;3.15;;;;;;;;;;5037584;28;20060;-55
2022/01/31 14:52:32;;;;;;;23.30;6.25;;;;;;;;;;5032525;28;20488;-55
2022/01/31 14:55:05;;;;;;;16.55;4.05;;;;;;;;;;5031087;28;20034;-55
2022/01/31 14:57:30;;;;;;;27.48;5.72;;;;;;;;;;5032582;28;20488;-55